sensor_id;sensor_type;location;lat;lon;timestamp;pressure;altitude;pressure_sealevel;temperature;humidity
59487;BME280;45298;54.918;73.504;2023-01-29T00:00:28;100060.50;;;-8.47;84.27
59487;BME280;45298;54.918;73.504;2023-01-29T00:02:57;100045.75;;;-8.59;84.53
59487;BME280;45298;54.918;73.504;2023-01-29T00:05:25;100018.97;;;-8.73;84.75
59487;BME280;45298;54.918;73.504;2023-01-29T00:07:55;100035.44;;;-8.60;85.04
59487;BME280;45298;54.918;73.504;2023-01-29T00:10:26;100046.66;;;-8.57;85.17
59487;BME280;45298;54.918;73.504;2023-01-29T00:12:55;100076.88;;;-8.39;84.29
59487;BME280;45298;54.918;73.504;2023-01-29T00:15:23;100065.63;;;-8.48;85.27
59487;BME280;45298;54.918;73.504;2023-01-29T00:17:52;100056.22;;;-8.48;85.02
59487;BME280;45298;54.918;73.504;2023-01-29T00:20:20;100030.31;;;-8.59;84.35
59487;BME280;45298;54.918;73.504;2023-01-29T00:22:49;100081.25;;;-8.33;84.97
59487;BME280;45298;54.918;73.504;2023-01-29T00:25:18;100085.59;;;-8.30;85.15
59487;BME280;45298;54.918;73.504;2023-01-29T00:27:46;100043.25;;;-8.54;84.68
59487;BME280;45298;54.918;73.504;2023-01-29T00:30:15;100087.38;;;-8.26;84.54
59487;BME280;45298;54.918;73.504;2023-01-29T00:32:46;100073.59;;;-8.30;84.73
59487;BME280;45298;54.918;73.504;2023-01-29T00:35:15;100102.06;;;-8.21;84.91
59487;BME280;45298;54.918;73.504;2023-01-29T00:37:43;100088.34;;;-8.20;84.32
59487;BME280;45298;54.918;73.504;2023-01-29T00:40:12;100076.25;;;-8.24;84.72
59487;BME280;45298;54.918;73.504;2023-01-29T00:42:43;100097.84;;;-8.15;85.33
59487;BME280;45298;54.918;73.504;2023-01-29T00:45:31;100087.47;;;-8.20;84.80
59487;BME280;45298;54.918;73.504;2023-01-29T00:48:00;100065.03;;;-8.29;84.74
59487;BME280;45298;54.918;73.504;2023-01-29T00:50:29;100100.44;;;-8.12;84.63
59487;BME280;45298;54.918;73.504;2023-01-29T00:52:57;100085.03;;;-8.11;85.04
59487;BME280;45298;54.918;73.504;2023-01-29T00:55:26;100084.72;;;-8.31;85.32
59487;BME280;45298;54.918;73.504;2023-01-29T00:57:55;100034.88;;;-8.39;85.35
59487;BME280;45298;54.918;73.504;2023-01-29T01:00:23;100093.66;;;-8.07;85.46
59487;BME280;45298;54.918;73.504;2023-01-29T01:02:54;100005.50;;;-8.57;85.68
59487;BME280;45298;54.918;73.504;2023-01-29T01:05:35;100068.66;;;-8.17;85.47
59487;BME280;45298;54.918;73.504;2023-01-29T01:08:06;100066.97;;;-8.14;85.89
59487;BME280;45298;54.918;73.504;2023-01-29T01:11:02;100081.72;;;-8.02;85.11
59487;BME280;45298;54.918;73.504;2023-01-29T01:13:32;100082.66;;;-7.97;85.31
59487;BME280;45298;54.918;73.504;2023-01-29T01:16:01;100080.06;;;-7.98;85.43
59487;BME280;45298;54.918;73.504;2023-01-29T01:18:30;100066.22;;;-8.05;85.53
59487;BME280;45298;54.918;73.504;2023-01-29T01:20:58;100090.47;;;-7.91;85.54
59487;BME280;45298;54.918;73.504;2023-01-29T01:23:27;100082.72;;;-7.91;85.58
59487;BME280;45298;54.918;73.504;2023-01-29T01:25:55;100041.28;;;-8.11;85.76
59487;BME280;45298;54.918;73.504;2023-01-29T01:28:25;100071.53;;;-7.96;85.33
59487;BME280;45298;54.918;73.504;2023-01-29T01:30:53;100105.25;;;-7.77;85.87
59487;BME280;45298;54.918;73.504;2023-01-29T01:33:22;100113.88;;;-7.74;86.28
59487;BME280;45298;54.918;73.504;2023-01-29T01:35:51;100109.56;;;-7.73;85.04
59487;BME280;45298;54.918;73.504;2023-01-29T01:38:20;100098.31;;;-7.81;86.24
59487;BME280;45298;54.918;73.504;2023-01-29T01:40:49;100109.56;;;-7.73;84.98
59487;BME280;45298;54.918;73.504;2023-01-29T01:43:17;99984.22;;;-8.45;85.74
59487;BME280;45298;54.918;73.504;2023-01-29T01:45:46;100099.22;;;-7.79;86.07
59487;BME280;45298;54.918;73.504;2023-01-29T01:48:21;100111.19;;;-7.81;85.98
59487;BME280;45298;54.918;73.504;2023-01-29T01:51:03;100109.56;;;-7.76;85.41
59487;BME280;45298;54.918;73.504;2023-01-29T01:53:40;100112.19;;;-7.70;85.91
59487;BME280;45298;54.918;73.504;2023-01-29T01:56:20;100088.72;;;-7.95;85.25
59487;BME280;45298;54.918;73.504;2023-01-29T01:58:55;100102.53;;;-7.86;85.92
59487;BME280;45298;54.918;73.504;2023-01-29T02:01:26;100110.41;;;-7.77;86.44
59487;BME280;45298;54.918;73.504;2023-01-29T02:06:46;100107.69;;;-7.86;86.17
59487;BME280;45298;54.918;73.504;2023-01-29T02:09:43;100048.84;;;-8.20;85.69
59487;BME280;45298;54.918;73.504;2023-01-29T02:12:15;100114.63;;;-7.82;86.05
59487;BME280;45298;54.918;73.504;2023-01-29T02:14:44;100101.59;;;-7.92;86.07
59487;BME280;45298;54.918;73.504;2023-01-29T02:17:17;100059.25;;;-8.15;85.53
59487;BME280;45298;54.918;73.504;2023-01-29T02:31:16;100133.59;;;-7.74;86.04
59487;BME280;45298;54.918;73.504;2023-01-29T02:34:10;100120.69;;;-7.77;86.42
59487;BME280;45298;54.918;73.504;2023-01-29T02:36:54;100156.13;;;-7.61;86.28
59487;BME280;45298;54.918;73.504;2023-01-29T02:39:32;100160.44;;;-7.58;85.59
59487;BME280;45298;54.918;73.504;2023-01-29T02:42:14;100166.50;;;-7.54;86.06
59487;BME280;45298;54.918;73.504;2023-01-29T02:44:54;100174.25;;;-7.53;86.68
59487;BME280;45298;54.918;73.504;2023-01-29T02:50:18;100192.38;;;-7.47;86.38
59487;BME280;45298;54.918;73.504;2023-01-29T02:56:16;100183.72;;;-7.50;87.41
59487;BME280;45298;54.918;73.504;2023-01-29T02:58:58;100187.28;;;-7.42;86.63
59487;BME280;45298;54.918;73.504;2023-01-29T03:01:55;100168.22;;;-7.53;86.66
59487;BME280;45298;54.918;73.504;2023-01-29T03:04:30;100171.78;;;-7.45;86.20
59487;BME280;45298;54.918;73.504;2023-01-29T03:07:04;100169.22;;;-7.44;86.65
59487;BME280;45298;54.918;73.504;2023-01-29T03:09:43;100176.13;;;-7.39;86.18
59487;BME280;45298;54.918;73.504;2023-01-29T03:12:24;100157.16;;;-7.46;86.00
59487;BME280;45298;54.918;73.504;2023-01-29T03:15:08;100153.59;;;-7.54;87.41
59487;BME280;45298;54.918;73.504;2023-01-29T03:18:04;100191.78;;;-7.27;86.35
59487;BME280;45298;54.918;73.504;2023-01-29T03:20:40;100185.78;;;-7.26;86.94
59487;BME280;45298;54.918;73.504;2023-01-29T03:23:28;100213.41;;;-7.16;86.75
59487;BME280;45298;54.918;73.504;2023-01-29T03:26:20;100177.97;;;-7.31;86.76
59487;BME280;45298;54.918;73.504;2023-01-29T03:29:09;100198.78;;;-7.15;87.41
59487;BME280;45298;54.918;73.504;2023-01-29T03:31:58;100166.81;;;-7.30;86.11
59487;BME280;45298;54.918;73.504;2023-01-29T03:34:40;100222.22;;;-6.98;86.40
59487;BME280;45298;54.918;73.504;2023-01-29T03:39:49;100200.59;;;-7.09;86.64
59487;BME280;45298;54.918;73.504;2023-01-29T03:42:23;100217.97;;;-6.93;86.99
59487;BME280;45298;54.918;73.504;2023-01-29T03:45:04;100208.50;;;-6.92;87.09
59487;BME280;45298;54.918;73.504;2023-01-29T03:47:50;100232.78;;;-6.78;86.99
59487;BME280;45298;54.918;73.504;2023-01-29T03:53:27;100222.38;;;-6.83;87.28
59487;BME280;45298;54.918;73.504;2023-01-29T04:02:36;100219.88;;;-6.76;86.36
59487;BME280;45298;54.918;73.504;2023-01-29T04:05:15;100206.91;;;-6.84;86.48
59487;BME280;45298;54.918;73.504;2023-01-29T04:08:09;100248.47;;;-6.56;86.39
59487;BME280;45298;54.918;73.504;2023-01-29T04:10:42;100239.84;;;-6.61;86.04
59487;BME280;45298;54.918;73.504;2023-01-29T04:13:13;100213.88;;;-6.75;86.64
59487;BME280;45298;54.918;73.504;2023-01-29T04:15:48;100240.72;;;-6.56;86.74
59487;BME280;45298;54.918;73.504;2023-01-29T04:18:24;100254.56;;;-6.51;86.72
59487;BME280;45298;54.918;73.504;2023-01-29T04:21:05;100267.59;;;-6.42;85.91
59487;BME280;45298;54.918;73.504;2023-01-29T04:23:37;100257.28;;;-6.37;85.86
59487;BME280;45298;54.918;73.504;2023-01-29T04:31:47;100270.53;;;-6.03;85.55
59487;BME280;45298;54.918;73.504;2023-01-29T04:34:22;100271.44;;;-5.93;85.83
59487;BME280;45298;54.918;73.504;2023-01-29T04:39:55;100254.34;;;-5.82;85.74
59487;BME280;45298;54.918;73.504;2023-01-29T04:42:36;100236.22;;;-5.83;85.35
59487;BME280;45298;54.918;73.504;2023-01-29T04:45:35;100263.88;;;-5.73;84.89
59487;BME280;45298;54.918;73.504;2023-01-29T04:48:19;100276.84;;;-5.67;84.57
59487;BME280;45298;54.918;73.504;2023-01-29T04:54:01;100276.84;;;-5.68;85.27
59487;BME280;45298;54.918;73.504;2023-01-29T04:56:54;100262.16;;;-5.72;85.31
59487;BME280;45298;54.918;73.504;2023-01-29T04:59:40;100251.88;;;-5.65;85.32
59487;BME280;45298;54.918;73.504;2023-01-29T05:02:10;100294.31;;;-5.38;84.57
59487;BME280;45298;54.918;73.504;2023-01-29T05:04:40;100220.84;;;-5.69;84.96
59487;BME280;45298;54.918;73.504;2023-01-29T05:07:12;100300.44;;;-5.19;84.27
59487;BME280;45298;54.918;73.504;2023-01-29T05:09:43;100290.09;;;-5.22;84.58
59487;BME280;45298;54.918;73.504;2023-01-29T05:12:14;100293.53;;;-5.24;84.52
59487;BME280;45298;54.918;73.504;2023-01-29T05:14:46;100322.06;;;-5.09;84.05
59487;BME280;45298;54.918;73.504;2023-01-29T05:17:17;100275.41;;;-5.29;83.87
59487;BME280;45298;54.918;73.504;2023-01-29T05:19:48;100251.16;;;-5.47;83.59
59487;BME280;45298;54.918;73.504;2023-01-29T05:22:17;100316.06;;;-5.05;84.46
59487;BME280;45298;54.918;73.504;2023-01-29T05:24:50;100293.53;;;-5.21;84.06
59487;BME280;45298;54.918;73.504;2023-01-29T05:27:25;100324.72;;;-5.01;83.33
59487;BME280;45298;54.918;73.504;2023-01-29T05:30:15;100338.56;;;-4.93;82.80
59487;BME280;45298;54.918;73.504;2023-01-29T05:32:44;100334.28;;;-4.88;82.84
59487;BME280;45298;54.918;73.504;2023-01-29T05:35:13;100346.44;;;-4.76;82.79
59487;BME280;45298;54.918;73.504;2023-01-29T05:37:42;100325.66;;;-4.90;82.56
59487;BME280;45298;54.918;73.504;2023-01-29T05:40:11;100325.63;;;-4.88;82.47
59487;BME280;45298;54.918;73.504;2023-01-29T05:42:41;100322.28;;;-4.73;82.28
59487;BME280;45298;54.918;73.504;2023-01-29T05:45:09;100314.47;;;-4.82;82.04
59487;BME280;45298;54.918;73.504;2023-01-29T05:47:39;100270.41;;;-5.01;81.83
59487;BME280;45298;54.918;73.504;2023-01-29T05:50:08;100344.78;;;-4.63;80.95
59487;BME280;45298;54.918;73.504;2023-01-29T05:52:37;100345.59;;;-4.72;80.77
59487;BME280;45298;54.918;73.504;2023-01-29T05:55:07;100320.41;;;-4.96;80.46
59487;BME280;45298;54.918;73.504;2023-01-29T05:57:36;100348.97;;;-4.83;80.43
59487;BME280;45298;54.918;73.504;2023-01-29T06:00:05;100361.06;;;-4.81;79.49
59487;BME280;45298;54.918;73.504;2023-01-29T06:02:38;100340.16;;;-5.09;78.20
59487;BME280;45298;54.918;73.504;2023-01-29T06:05:08;100359.22;;;-5.01;78.69
59487;BME280;45298;54.918;73.504;2023-01-29T06:07:36;100354.00;;;-5.05;78.71
59487;BME280;45298;54.918;73.504;2023-01-29T06:10:15;100380.03;;;-4.83;77.85
59487;BME280;45298;54.918;73.504;2023-01-29T06:12:46;100391.25;;;-4.81;78.18
59487;BME280;45298;54.918;73.504;2023-01-29T06:15:15;100357.44;;;-5.11;77.27
59487;BME280;45298;54.918;73.504;2023-01-29T06:17:44;100374.63;;;-5.14;77.52
59487;BME280;45298;54.918;73.504;2023-01-29T06:20:12;100361.53;;;-5.33;77.84
59487;BME280;45298;54.918;73.504;2023-01-29T06:22:41;100397.88;;;-5.21;77.48
59487;BME280;45298;54.918;73.504;2023-01-29T06:25:10;100387.44;;;-5.30;77.09
59487;BME280;45298;54.918;73.504;2023-01-29T06:27:39;100382.13;;;-5.46;76.15
59487;BME280;45298;54.918;73.504;2023-01-29T06:30:08;100401.25;;;-5.28;77.02
59487;BME280;45298;54.918;73.504;2023-01-29T06:32:39;100392.59;;;-5.28;76.83
59487;BME280;45298;54.918;73.504;2023-01-29T06:35:08;100387.47;;;-5.27;77.05
59487;BME280;45298;54.918;73.504;2023-01-29T06:37:38;100396.97;;;-5.20;76.20
59487;BME280;45298;54.918;73.504;2023-01-29T06:40:07;100387.53;;;-5.19;76.73
59487;BME280;45298;54.918;73.504;2023-01-29T06:42:36;100395.38;;;-5.08;76.55
59487;BME280;45298;54.918;73.504;2023-01-29T06:45:05;100415.28;;;-5.01;76.18
59487;BME280;45298;54.918;73.504;2023-01-29T06:47:34;100380.72;;;-5.06;76.74
59487;BME280;45298;54.918;73.504;2023-01-29T06:50:02;100410.25;;;-4.76;75.51
59487;BME280;45298;54.918;73.504;2023-01-29T06:52:31;100405.16;;;-4.64;75.38
59487;BME280;45298;54.918;73.504;2023-01-29T06:55:00;100395.69;;;-4.56;75.38
59487;BME280;45298;54.918;73.504;2023-01-29T06:57:29;100390.53;;;-4.51;75.17
59487;BME280;45298;54.918;73.504;2023-01-29T06:59:57;100339.50;;;-4.75;75.12
59487;BME280;45298;54.918;73.504;2023-01-29T07:02:26;100375.91;;;-4.52;74.89
59487;BME280;45298;54.918;73.504;2023-01-29T07:04:55;100381.00;;;-4.63;74.61
59487;BME280;45298;54.918;73.504;2023-01-29T07:07:24;100399.88;;;-4.79;74.72
59487;BME280;45298;54.918;73.504;2023-01-29T07:09:53;100397.25;;;-4.84;74.87
59487;BME280;45298;54.918;73.504;2023-01-29T07:12:22;100385.06;;;-5.01;74.50
59487;BME280;45298;54.918;73.504;2023-01-29T07:14:50;100382.50;;;-5.01;75.18
59487;BME280;45298;54.918;73.504;2023-01-29T07:17:19;100411.16;;;-4.68;75.35
59487;BME280;45298;54.918;73.504;2023-01-29T07:19:48;100380.91;;;-4.81;74.19
59487;BME280;45298;54.918;73.504;2023-01-29T07:22:17;100418.22;;;-4.41;74.31
59487;BME280;45298;54.918;73.504;2023-01-29T07:24:45;100415.66;;;-4.36;74.38
59487;BME280;45298;54.918;73.504;2023-01-29T07:27:15;100395.69;;;-4.60;73.98
59487;BME280;45298;54.918;73.504;2023-01-29T07:29:43;100398.13;;;-4.82;73.91
59487;BME280;45298;54.918;73.504;2023-01-29T07:32:12;100443.91;;;-4.75;74.68
59487;BME280;45298;54.918;73.504;2023-01-29T07:34:41;100424.09;;;-4.71;74.21
59487;BME280;45298;54.918;73.504;2023-01-29T07:37:12;100434.53;;;-4.62;74.35
59487;BME280;45298;54.918;73.504;2023-01-29T07:39:41;100408.59;;;-4.63;74.05
59487;BME280;45298;54.918;73.504;2023-01-29T07:42:10;100431.19;;;-4.42;73.63
59487;BME280;45298;54.918;73.504;2023-01-29T07:44:38;100425.16;;;-4.35;73.16
59487;BME280;45298;54.918;73.504;2023-01-29T07:47:07;100404.44;;;-4.30;73.12
59487;BME280;45298;54.918;73.504;2023-01-29T07:49:36;100445.19;;;-3.97;73.06
59487;BME280;45298;54.918;73.504;2023-01-29T07:52:05;100414.13;;;-3.95;72.99
59487;BME280;45298;54.918;73.504;2023-01-29T07:54:33;100445.31;;;-3.69;72.19
59487;BME280;45298;54.918;73.504;2023-01-29T07:57:02;100373.53;;;-3.91;71.71
59487;BME280;45298;54.918;73.504;2023-01-29T07:59:31;100402.09;;;-3.63;72.20
59487;BME280;45298;54.918;73.504;2023-01-29T08:02:00;100416.81;;;-3.58;71.51
59487;BME280;45298;54.918;73.504;2023-01-29T08:04:29;100408.97;;;-3.75;72.16
59487;BME280;45298;54.918;73.504;2023-01-29T08:06:57;100432.38;;;-3.55;71.78
59487;BME280;45298;54.918;73.504;2023-01-29T08:09:26;100425.44;;;-3.62;71.61
59487;BME280;45298;54.918;73.504;2023-01-29T08:11:55;100446.22;;;-3.43;71.82
59487;BME280;45298;54.918;73.504;2023-01-29T08:14:24;100442.75;;;-3.41;71.43
59487;BME280;45298;54.918;73.504;2023-01-29T08:16:53;100428.91;;;-3.51;70.70
59487;BME280;45298;54.918;73.504;2023-01-29T08:19:21;100426.28;;;-3.58;71.37
59487;BME280;45298;54.918;73.504;2023-01-29T08:21:50;100434.06;;;-3.63;70.91
59487;BME280;45298;54.918;73.504;2023-01-29T08:24:18;100412.41;;;-3.85;70.95
59487;BME280;45298;54.918;73.504;2023-01-29T08:26:47;100414.16;;;-3.84;70.87
59487;BME280;45298;54.918;73.504;2023-01-29T08:29:16;100444.44;;;-3.66;70.75
59487;BME280;45298;54.918;73.504;2023-01-29T08:31:45;100432.28;;;-3.81;70.62
59487;BME280;45298;54.918;73.504;2023-01-29T08:34:14;100457.41;;;-3.68;70.94
59487;BME280;45298;54.918;73.504;2023-01-29T08:36:56;100385.50;;;-4.28;70.86
59487;BME280;45298;54.918;73.504;2023-01-29T08:39:25;100465.91;;;-4.03;70.63
59487;BME280;45298;54.918;73.504;2023-01-29T08:41:59;100490.91;;;-4.13;71.11
59487;BME280;45298;54.918;73.504;2023-01-29T08:44:27;100466.59;;;-4.35;71.44
59487;BME280;45298;54.918;73.504;2023-01-29T08:46:56;100436.16;;;-4.68;71.62
59487;BME280;45298;54.918;73.504;2023-01-29T08:49:40;100445.53;;;-4.88;72.19
59487;BME280;45298;54.918;73.504;2023-01-29T08:52:09;100471.41;;;-4.88;72.69
59487;BME280;45298;54.918;73.504;2023-01-29T08:54:37;100454.75;;;-5.21;72.17
59487;BME280;45298;54.918;73.504;2023-01-29T08:57:06;100446.91;;;-5.30;72.39
59487;BME280;45298;54.918;73.504;2023-01-29T08:59:36;100450.28;;;-5.39;73.24
59487;BME280;45298;54.918;73.504;2023-01-29T09:02:05;100404.31;;;-5.69;72.97
59487;BME280;45298;54.918;73.504;2023-01-29T09:04:34;100445.94;;;-5.41;73.24
59487;BME280;45298;54.918;73.504;2023-01-29T09:07:02;100454.75;;;-5.21;73.27
59487;BME280;45298;54.918;73.504;2023-01-29T09:09:31;100458.25;;;-5.12;72.69
59487;BME280;45298;54.918;73.504;2023-01-29T09:12:00;100451.38;;;-5.10;73.29
59487;BME280;45298;54.918;73.504;2023-01-29T09:14:29;100454.00;;;-5.06;72.91
59487;BME280;45298;54.918;73.504;2023-01-29T09:16:59;100464.31;;;-5.09;72.29
59487;BME280;45298;54.918;73.504;2023-01-29T09:19:29;100482.50;;;-5.04;72.47
59487;BME280;45298;54.918;73.504;2023-01-29T09:21:58;100459.28;;;-4.96;72.67
59487;BME280;45298;54.918;73.504;2023-01-29T09:24:27;100444.50;;;-5.08;72.19
59487;BME280;45298;54.918;73.504;2023-01-29T09:26:57;100452.31;;;-5.04;72.55
59487;BME280;45298;54.918;73.504;2023-01-29T09:29:27;100460.94;;;-5.02;72.74
59487;BME280;45298;54.918;73.504;2023-01-29T09:31:57;100460.88;;;-5.09;72.08
59487;BME280;45298;54.918;73.504;2023-01-29T09:34:26;100457.28;;;-5.25;72.67
59487;BME280;45298;54.918;73.504;2023-01-29T09:36:55;100480.59;;;-5.24;72.98
59487;BME280;45298;54.918;73.504;2023-01-29T09:39:25;100469.28;;;-5.34;73.22
59487;BME280;45298;54.918;73.504;2023-01-29T09:42:11;100446.63;;;-5.59;72.20
59487;BME280;45298;54.918;73.504;2023-01-29T09:47:26;100470.91;;;-5.42;73.13
59487;BME280;45298;54.918;73.504;2023-01-29T09:55:38;100479.66;;;-5.27;73.03
59487;BME280;45298;54.918;73.504;2023-01-29T09:58:24;100502.19;;;-5.17;73.37
59487;BME280;45298;54.918;73.504;2023-01-29T10:04:44;100505.41;;;-5.41;72.86
59487;BME280;45298;54.918;73.504;2023-01-29T10:07:25;100500.22;;;-5.43;73.64
59487;BME280;45298;54.918;73.504;2023-01-29T10:15:55;100515.75;;;-5.41;73.69
59487;BME280;45298;54.918;73.504;2023-01-29T10:18:29;100513.97;;;-5.44;74.10
59487;BME280;45298;54.918;73.504;2023-01-29T10:21:18;100521.72;;;-5.46;74.17
59487;BME280;45298;54.918;73.504;2023-01-29T10:26:33;100490.44;;;-5.70;74.43
59487;BME280;45298;54.918;73.504;2023-01-29T10:29:06;100472.94;;;-5.93;73.82
59487;BME280;45298;54.918;73.504;2023-01-29T10:31:38;100519.66;;;-5.74;74.46
59487;BME280;45298;54.918;73.504;2023-01-29T10:34:14;100505.59;;;-5.98;74.54
59487;BME280;45298;54.918;73.504;2023-01-29T10:36:46;100440.41;;;-6.46;74.99
59487;BME280;45298;54.918;73.504;2023-01-29T10:39:21;100520.03;;;-6.14;74.20
59487;BME280;45298;54.918;73.504;2023-01-29T10:42:13;100526.97;;;-6.12;74.29
59487;BME280;45298;54.918;73.504;2023-01-29T10:50:56;100452.81;;;-6.82;74.84
59487;BME280;45298;54.918;73.504;2023-01-29T10:58:58;100552.91;;;-6.61;74.81
59487;BME280;45298;54.918;73.504;2023-01-29T11:01:28;100550.19;;;-6.70;75.69
59487;BME280;45298;54.918;73.504;2023-01-29T11:04:02;100551.69;;;-6.81;75.57
59487;BME280;45298;54.918;73.504;2023-01-29T11:06:33;100548.84;;;-6.97;76.76
59487;BME280;45298;54.918;73.504;2023-01-29T11:09:34;100550.47;;;-7.02;76.32
59487;BME280;45298;54.918;73.504;2023-01-29T11:12:14;100534.59;;;-7.25;76.64
59487;BME280;45298;54.918;73.504;2023-01-29T11:17:24;100543.94;;;-7.32;76.90
59487;BME280;45298;54.918;73.504;2023-01-29T11:19:54;100535.94;;;-7.46;76.68
59487;BME280;45298;54.918;73.504;2023-01-29T11:22:28;100549.69;;;-7.46;77.27
59487;BME280;45298;54.918;73.504;2023-01-29T11:25:16;100573.53;;;-7.54;76.67
59487;BME280;45298;54.918;73.504;2023-01-29T11:27:52;100547.31;;;-7.78;76.47
59487;BME280;45298;54.918;73.504;2023-01-29T11:30:35;100492.16;;;-8.30;77.34
59487;BME280;45298;54.918;73.504;2023-01-29T11:33:08;100562.06;;;-8.10;77.42
59487;BME280;45298;54.918;73.504;2023-01-29T11:35:39;100586.06;;;-8.11;76.87
59487;BME280;45298;54.918;73.504;2023-01-29T11:38:25;100568.25;;;-8.40;77.41
59487;BME280;45298;54.918;73.504;2023-01-29T11:41:06;100500.19;;;-8.91;77.49
59487;BME280;45298;54.918;73.504;2023-01-29T11:43:41;100572.09;;;-8.59;78.00
59487;BME280;45298;54.918;73.504;2023-01-29T11:46:13;100502.50;;;-9.02;78.32
59487;BME280;45298;54.918;73.504;2023-01-29T11:48:49;100590.25;;;-8.55;78.00
59487;BME280;45298;54.918;73.504;2023-01-29T11:51:28;100584.88;;;-8.64;77.85
59487;BME280;45298;54.918;73.504;2023-01-29T11:54:02;100543.91;;;-8.91;79.05
59487;BME280;45298;54.918;73.504;2023-01-29T11:56:38;100559.41;;;-8.88;78.90
59487;BME280;45298;54.918;73.504;2023-01-29T12:01:55;100549.91;;;-9.24;78.51
59487;BME280;45298;54.918;73.504;2023-01-29T12:04:30;100600.72;;;-9.14;78.62
59487;BME280;45298;54.918;73.504;2023-01-29T12:06:59;100512.50;;;-9.77;79.18
59487;BME280;45298;54.918;73.504;2023-01-29T12:09:29;100557.69;;;-9.53;78.88
59487;BME280;45298;54.918;73.504;2023-01-29T12:15:21;100587.47;;;-9.60;79.00
59487;BME280;45298;54.918;73.504;2023-01-29T12:20:53;100592.66;;;-9.88;79.14
59487;BME280;45298;54.918;73.504;2023-01-29T12:31:23;100594.31;;;-9.90;80.14
59487;BME280;45298;54.918;73.504;2023-01-29T12:34:26;100607.13;;;-9.90;79.91
59487;BME280;45298;54.918;73.504;2023-01-29T12:37:10;100596.53;;;-10.00;79.76
59487;BME280;45298;54.918;73.504;2023-01-29T12:39:41;100580.84;;;-10.10;79.85
59487;BME280;45298;54.918;73.504;2023-01-29T12:44:45;100590.28;;;-10.09;80.37
59487;BME280;45298;54.918;73.504;2023-01-29T12:47:38;100583.16;;;-10.19;80.12
59487;BME280;45298;54.918;73.504;2023-01-29T12:50:26;100623.00;;;-10.03;80.04
59487;BME280;45298;54.918;73.504;2023-01-29T12:53:01;100626.97;;;-10.13;80.27
59487;BME280;45298;54.918;73.504;2023-01-29T12:58:14;100588.63;;;-10.36;81.02
59487;BME280;45298;54.918;73.504;2023-01-29T13:00:45;100604.19;;;-10.29;82.67
59487;BME280;45298;54.918;73.504;2023-01-29T13:03:26;100633.03;;;-10.11;82.24
59487;BME280;45298;54.918;73.504;2023-01-29T13:06:10;100610.44;;;-10.21;82.73
59487;BME280;45298;54.918;73.504;2023-01-29T13:08:50;100642.63;;;-10.04;82.34
59487;BME280;45298;54.918;73.504;2023-01-29T13:11:25;100588.16;;;-10.24;81.88
59487;BME280;45298;54.918;73.504;2023-01-29T13:14:55;100610.09;;;-10.05;82.87
59487;BME280;45298;54.918;73.504;2023-01-29T13:17:08;100555.22;;;-10.39;82.83
59487;BME280;45298;54.918;73.504;2023-01-29T13:19:42;100598.19;;;-10.03;82.75
59487;BME280;45298;54.918;73.504;2023-01-29T13:22:22;100640.94;;;-9.76;83.77
59487;BME280;45298;54.918;73.504;2023-01-29T13:24:52;100615.94;;;-9.81;82.34
59487;BME280;45298;54.918;73.504;2023-01-29T13:27:33;100552.50;;;-10.14;83.16
59487;BME280;45298;54.918;73.504;2023-01-29T13:30:02;100619.56;;;-9.75;83.48
59487;BME280;45298;54.918;73.504;2023-01-29T13:32:34;100617.84;;;-9.74;83.53
59487;BME280;45298;54.918;73.504;2023-01-29T13:35:11;100642.31;;;-9.58;82.82
59487;BME280;45298;54.918;73.504;2023-01-29T13:37:48;100656.22;;;-9.50;82.82
59487;BME280;45298;54.918;73.504;2023-01-29T13:40:25;100653.53;;;-9.54;83.66
59487;BME280;45298;54.918;73.504;2023-01-29T13:42:55;100603.88;;;-9.84;82.48
59487;BME280;45298;54.918;73.504;2023-01-29T13:45:33;100663.28;;;-9.43;83.00
59487;BME280;45298;54.918;73.504;2023-01-29T13:48:16;100661.66;;;-9.41;83.11
59487;BME280;45298;54.918;73.504;2023-01-29T13:50:50;100653.53;;;-9.54;83.88
59487;BME280;45298;54.918;73.504;2023-01-29T13:53:25;100667.56;;;-9.43;82.76
59487;BME280;45298;54.918;73.504;2023-01-29T13:56:28;100677.19;;;-9.36;83.04
59487;BME280;45298;54.918;73.504;2023-01-29T13:58:58;100653.59;;;-9.53;84.13
59487;BME280;45298;54.918;73.504;2023-01-29T14:06:51;100660.81;;;-9.39;83.17
59487;BME280;45298;54.918;73.504;2023-01-29T14:15:00;100678.31;;;-9.26;83.08
59487;BME280;45298;54.918;73.504;2023-01-29T14:17:31;100660.91;;;-9.36;83.10
59487;BME280;45298;54.918;73.504;2023-01-29T14:20:18;100668.72;;;-9.33;83.04
59487;BME280;45298;54.918;73.504;2023-01-29T14:22:56;100681.81;;;-9.24;83.58
59487;BME280;45298;54.918;73.504;2023-01-29T14:25:31;100680.78;;;-9.29;83.38
59487;BME280;45298;54.918;73.504;2023-01-29T14:28:02;100682.63;;;-9.25;83.02
59487;BME280;45298;54.918;73.504;2023-01-29T14:30:33;100674.00;;;-9.27;83.68
59487;BME280;45298;54.918;73.504;2023-01-29T14:33:03;100648.84;;;-9.39;84.08
59487;BME280;45298;54.918;73.504;2023-01-29T14:35:39;100630.72;;;-9.44;83.94
59487;BME280;45298;54.918;73.504;2023-01-29T14:38:16;100646.56;;;-9.28;83.80
59487;BME280;45298;54.918;73.504;2023-01-29T14:40:46;100640.66;;;-9.26;84.00
59487;BME280;45298;54.918;73.504;2023-01-29T14:43:18;100588.59;;;-9.50;84.07
59487;BME280;45298;54.918;73.504;2023-01-29T14:45:49;100646.22;;;-9.10;83.65
59487;BME280;45298;54.918;73.504;2023-01-29T14:48:44;100668.00;;;-8.97;84.05
59487;BME280;45298;54.918;73.504;2023-01-29T14:51:16;100631.47;;;-9.17;83.98
59487;BME280;45298;54.918;73.504;2023-01-29T14:54:25;100669.66;;;-8.99;84.01
59487;BME280;45298;54.918;73.504;2023-01-29T14:56:57;100633.31;;;-9.12;83.45
59487;BME280;45298;54.918;73.504;2023-01-29T14:59:37;100652.31;;;-9.06;84.16
59487;BME280;45298;54.918;73.504;2023-01-29T15:02:38;100680.16;;;-8.91;83.82
59487;BME280;45298;54.918;73.504;2023-01-29T15:05:18;100581.09;;;-9.43;83.58
59487;BME280;45298;54.918;73.504;2023-01-29T15:08:06;100654.97;;;-9.03;84.20